sensor_id;sensor_type;location;lat;lon;timestamp;P1;durP1;ratioP1;P2;durP2;ratioP2
80322;SDS011;69636;52.372;13.610;2024-03-22T00:00:47;14.20;;;8.63;;
80322;SDS011;69636;52.372;13.610;2024-03-22T00:03:15;14.45;;;8.70;;
80322;SDS011;69636;52.372;13.610;2024-03-22T00:05:41;15.43;;;8.60;;
80322;SDS011;69636;52.372;13.610;2024-03-22T00:08:08;16.00;;;9.85;;
80322;SDS011;69636;52.372;13.610;2024-03-22T00:10:34;14.57;;;8.65;;
80322;SDS011;69636;52.372;13.610;2024-03-22T00:13:00;13.90;;;8.35;;
80322;SDS011;69636;52.372;13.610;2024-03-22T00:15:27;13.43;;;8.80;;
80322;SDS011;69636;52.372;13.610;2024-03-22T00:17:53;16.15;;;9.35;;
80322;SDS011;69636;52.372;13.610;2024-03-22T00:20:21;16.50;;;9.95;;
80322;SDS011;69636;52.372;13.610;2024-03-22T00:22:47;16.85;;;10.13;;
80322;SDS011;69636;52.372;13.610;2024-03-22T00:25:13;17.67;;;12.30;;
80322;SDS011;69636;52.372;13.610;2024-03-22T00:27:40;15.15;;;8.60;;
80322;SDS011;69636;52.372;13.610;2024-03-22T00:30:06;15.80;;;9.93;;
80322;SDS011;69636;52.372;13.610;2024-03-22T00:32:33;17.33;;;11.80;;
80322;SDS011;69636;52.372;13.610;2024-03-22T00:35:00;17.23;;;9.98;;
80322;SDS011;69636;52.372;13.610;2024-03-22T00:37:27;18.98;;;13.10;;
80322;SDS011;69636;52.372;13.610;2024-03-22T00:39:54;15.65;;;9.55;;
80322;SDS011;69636;52.372;13.610;2024-03-22T00:42:20;21.50;;;11.77;;
80322;SDS011;69636;52.372;13.610;2024-03-22T00:44:46;18.38;;;11.00;;
80322;SDS011;69636;52.372;13.610;2024-03-22T00:47:13;19.58;;;14.18;;
80322;SDS011;69636;52.372;13.610;2024-03-22T00:49:39;22.52;;;12.32;;
80322;SDS011;69636;52.372;13.610;2024-03-22T00:52:05;22.15;;;11.65;;
80322;SDS011;69636;52.372;13.610;2024-03-22T00:54:33;19.02;;;10.85;;
80322;SDS011;69636;52.372;13.610;2024-03-22T00:56:59;18.90;;;10.30;;
80322;SDS011;69636;52.372;13.610;2024-03-22T00:59:26;19.25;;;11.30;;
80322;SDS011;69636;52.372;13.610;2024-03-22T01:01:52;17.58;;;11.30;;
80322;SDS011;69636;52.372;13.610;2024-03-22T01:04:18;15.73;;;10.57;;
80322;SDS011;69636;52.372;13.610;2024-03-22T01:06:45;18.33;;;11.10;;
80322;SDS011;69636;52.372;13.610;2024-03-22T01:09:11;18.13;;;10.52;;
80322;SDS011;69636;52.372;13.610;2024-03-22T01:11:39;15.23;;;9.00;;
80322;SDS011;69636;52.372;13.610;2024-03-22T01:14:05;15.80;;;9.50;;
80322;SDS011;69636;52.372;13.610;2024-03-22T01:16:31;17.45;;;9.48;;
80322;SDS011;69636;52.372;13.610;2024-03-22T01:18:58;17.77;;;9.77;;
80322;SDS011;69636;52.372;13.610;2024-03-22T01:21:24;18.77;;;11.45;;
80322;SDS011;69636;52.372;13.610;2024-03-22T01:23:51;17.15;;;9.88;;
80322;SDS011;69636;52.372;13.610;2024-03-22T01:26:17;15.90;;;9.90;;
80322;SDS011;69636;52.372;13.610;2024-03-22T01:28:45;16.67;;;10.35;;
80322;SDS011;69636;52.372;13.610;2024-03-22T01:31:12;17.38;;;9.80;;
80322;SDS011;69636;52.372;13.610;2024-03-22T01:33:38;16.25;;;9.38;;
80322;SDS011;69636;52.372;13.610;2024-03-22T01:36:05;15.43;;;9.23;;
80322;SDS011;69636;52.372;13.610;2024-03-22T01:38:31;16.50;;;9.48;;
80322;SDS011;69636;52.372;13.610;2024-03-22T01:40:58;16.98;;;9.73;;
80322;SDS011;69636;52.372;13.610;2024-03-22T01:43:24;15.63;;;9.38;;
80322;SDS011;69636;52.372;13.610;2024-03-22T01:45:52;15.90;;;8.68;;
80322;SDS011;69636;52.372;13.610;2024-03-22T01:48:18;15.55;;;10.05;;
80322;SDS011;69636;52.372;13.610;2024-03-22T01:50:44;15.98;;;10.15;;
80322;SDS011;69636;52.372;13.610;2024-03-22T01:53:11;16.08;;;8.63;;
80322;SDS011;69636;52.372;13.610;2024-03-22T01:55:37;16.85;;;9.75;;
80322;SDS011;69636;52.372;13.610;2024-03-22T01:58:04;17.20;;;9.65;;
80322;SDS011;69636;52.372;13.610;2024-03-22T02:00:31;17.80;;;9.25;;
80322;SDS011;69636;52.372;13.610;2024-03-22T02:02:58;17.15;;;9.27;;
80322;SDS011;69636;52.372;13.610;2024-03-22T02:05:25;16.23;;;9.63;;
80322;SDS011;69636;52.372;13.610;2024-03-22T02:07:51;17.38;;;8.88;;
80322;SDS011;69636;52.372;13.610;2024-03-22T02:10:17;17.48;;;9.52;;
80322;SDS011;69636;52.372;13.610;2024-03-22T02:12:44;17.75;;;8.75;;
80322;SDS011;69636;52.372;13.610;2024-03-22T02:15:10;17.85;;;10.73;;
80322;SDS011;69636;52.372;13.610;2024-03-22T02:17:37;17.08;;;8.68;;
80322;SDS011;69636;52.372;13.610;2024-03-22T02:20:05;16.70;;;9.55;;
80322;SDS011;69636;52.372;13.610;2024-03-22T02:22:32;20.38;;;12.02;;
80322;SDS011;69636;52.372;13.610;2024-03-22T02:25:00;17.92;;;8.68;;
80322;SDS011;69636;52.372;13.610;2024-03-22T02:27:26;17.40;;;8.90;;
80322;SDS011;69636;52.372;13.610;2024-03-22T02:29:52;20.55;;;10.85;;
80322;SDS011;69636;52.372;13.610;2024-03-22T02:32:19;20.33;;;11.68;;
80322;SDS011;69636;52.372;13.610;2024-03-22T02:34:45;16.60;;;9.93;;
80322;SDS011;69636;52.372;13.610;2024-03-22T02:37:12;19.60;;;14.13;;
80322;SDS011;69636;52.372;13.610;2024-03-22T02:39:38;18.70;;;10.00;;
80322;SDS011;69636;52.372;13.610;2024-03-22T02:42:06;20.77;;;10.85;;
80322;SDS011;69636;52.372;13.610;2024-03-22T02:44:32;18.27;;;9.90;;
80322;SDS011;69636;52.372;13.610;2024-03-22T02:46:59;19.40;;;12.20;;
80322;SDS011;69636;52.372;13.610;2024-03-22T02:49:25;19.92;;;9.13;;
80322;SDS011;69636;52.372;13.610;2024-03-22T02:51:51;19.75;;;9.93;;
80322;SDS011;69636;52.372;13.610;2024-03-22T02:54:18;18.88;;;9.52;;
80322;SDS011;69636;52.372;13.610;2024-03-22T02:56:44;21.70;;;13.63;;
80322;SDS011;69636;52.372;13.610;2024-03-22T02:59:12;20.00;;;9.18;;
80322;SDS011;69636;52.372;13.610;2024-03-22T03:01:38;18.35;;;8.52;;
80322;SDS011;69636;52.372;13.610;2024-03-22T03:04:04;19.55;;;10.07;;
80322;SDS011;69636;52.372;13.610;2024-03-22T03:06:31;18.73;;;10.15;;
80322;SDS011;69636;52.372;13.610;2024-03-22T03:08:57;20.42;;;9.35;;
80322;SDS011;69636;52.372;13.610;2024-03-22T03:11:23;20.95;;;10.40;;
80322;SDS011;69636;52.372;13.610;2024-03-22T03:13:50;17.65;;;9.77;;
80322;SDS011;69636;52.372;13.610;2024-03-22T03:16:17;15.18;;;9.13;;
80322;SDS011;69636;52.372;13.610;2024-03-22T03:18:44;18.85;;;9.30;;
80322;SDS011;69636;52.372;13.610;2024-03-22T03:21:10;17.90;;;8.65;;
80322;SDS011;69636;52.372;13.610;2024-03-22T03:23:36;16.95;;;8.40;;
80322;SDS011;69636;52.372;13.610;2024-03-22T03:26:03;15.55;;;8.05;;
80322;SDS011;69636;52.372;13.610;2024-03-22T03:28:29;15.80;;;8.88;;
80322;SDS011;69636;52.372;13.610;2024-03-22T03:30:56;14.00;;;8.65;;
80322;SDS011;69636;52.372;13.610;2024-03-22T03:33:23;18.58;;;8.85;;
80322;SDS011;69636;52.372;13.610;2024-03-22T03:35:50;19.08;;;8.43;;
80322;SDS011;69636;52.372;13.610;2024-03-22T03:38:16;17.20;;;8.05;;
80322;SDS011;69636;52.372;13.610;2024-03-22T03:40:43;16.92;;;8.20;;
80322;SDS011;69636;52.372;13.610;2024-03-22T03:43:09;16.38;;;8.65;;
80322;SDS011;69636;52.372;13.610;2024-03-22T03:45:36;15.45;;;9.15;;
80322;SDS011;69636;52.372;13.610;2024-03-22T03:48:02;16.75;;;8.75;;
80322;SDS011;69636;52.372;13.610;2024-03-22T03:50:31;15.38;;;9.52;;
80322;SDS011;69636;52.372;13.610;2024-03-22T03:52:57;15.73;;;9.07;;
80322;SDS011;69636;52.372;13.610;2024-03-22T03:55:23;17.40;;;8.68;;
80322;SDS011;69636;52.372;13.610;2024-03-22T03:57:50;15.85;;;9.07;;
80322;SDS011;69636;52.372;13.610;2024-03-22T04:00:17;19.20;;;9.93;;
80322;SDS011;69636;52.372;13.610;2024-03-22T04:02:44;18.05;;;10.50;;
80322;SDS011;69636;52.372;13.610;2024-03-22T04:05:10;19.58;;;8.68;;
80322;SDS011;69636;52.372;13.610;2024-03-22T04:07:38;20.02;;;9.70;;
80322;SDS011;69636;52.372;13.610;2024-03-22T04:10:04;18.60;;;9.57;;
80322;SDS011;69636;52.372;13.610;2024-03-22T04:12:31;18.00;;;10.05;;
80322;SDS011;69636;52.372;13.610;2024-03-22T04:14:57;18.60;;;9.23;;
80322;SDS011;69636;52.372;13.610;2024-03-22T04:17:24;17.65;;;8.82;;
80322;SDS011;69636;52.372;13.610;2024-03-22T04:19:50;18.55;;;12.40;;
80322;SDS011;69636;52.372;13.610;2024-03-22T04:22:16;16.40;;;8.25;;
80322;SDS011;69636;52.372;13.610;2024-03-22T04:24:44;19.38;;;10.05;;
80322;SDS011;69636;52.372;13.610;2024-03-22T04:27:10;15.10;;;9.25;;
80322;SDS011;69636;52.372;13.610;2024-03-22T04:29:37;18.52;;;8.88;;
80322;SDS011;69636;52.372;13.610;2024-03-22T04:32:03;15.27;;;7.60;;
80322;SDS011;69636;52.372;13.610;2024-03-22T04:34:30;17.00;;;8.73;;
80322;SDS011;69636;52.372;13.610;2024-03-22T04:36:56;17.45;;;8.18;;
80322;SDS011;69636;52.372;13.610;2024-03-22T04:39:22;15.20;;;8.10;;
80322;SDS011;69636;52.372;13.610;2024-03-22T04:41:50;12.43;;;7.88;;
80322;SDS011;69636;52.372;13.610;2024-03-22T04:44:16;15.60;;;8.48;;
80322;SDS011;69636;52.372;13.610;2024-03-22T04:46:42;15.63;;;6.85;;
80322;SDS011;69636;52.372;13.610;2024-03-22T04:49:09;15.52;;;10.43;;
80322;SDS011;69636;52.372;13.610;2024-03-22T04:51:35;15.98;;;8.23;;
80322;SDS011;69636;52.372;13.610;2024-03-22T04:54:02;14.93;;;7.15;;
80322;SDS011;69636;52.372;13.610;2024-03-22T04:56:28;16.48;;;8.23;;
80322;SDS011;69636;52.372;13.610;2024-03-22T04:58:56;15.45;;;7.90;;
80322;SDS011;69636;52.372;13.610;2024-03-22T05:01:22;15.52;;;8.48;;
80322;SDS011;69636;52.372;13.610;2024-03-22T05:03:48;16.73;;;7.90;;
80322;SDS011;69636;52.372;13.610;2024-03-22T05:06:15;13.38;;;7.05;;
80322;SDS011;69636;52.372;13.610;2024-03-22T05:08:41;14.38;;;7.03;;
80322;SDS011;69636;52.372;13.610;2024-03-22T05:11:07;16.80;;;8.05;;
80322;SDS011;69636;52.372;13.610;2024-03-22T05:13:34;13.60;;;7.38;;
80322;SDS011;69636;52.372;13.610;2024-03-22T05:16:02;16.63;;;7.90;;
80322;SDS011;69636;52.372;13.610;2024-03-22T05:18:28;13.25;;;7.32;;
80322;SDS011;69636;52.372;13.610;2024-03-22T05:20:55;15.95;;;9.63;;
80322;SDS011;69636;52.372;13.610;2024-03-22T05:23:21;15.00;;;8.02;;
80322;SDS011;69636;52.372;13.610;2024-03-22T05:25:47;14.85;;;7.57;;
80322;SDS011;69636;52.372;13.610;2024-03-22T05:28:13;13.40;;;7.30;;
80322;SDS011;69636;52.372;13.610;2024-03-22T05:30:40;13.55;;;8.32;;
80322;SDS011;69636;52.372;13.610;2024-03-22T05:33:08;13.65;;;8.13;;
80322;SDS011;69636;52.372;13.610;2024-03-22T05:35:34;14.25;;;8.18;;
80322;SDS011;69636;52.372;13.610;2024-03-22T05:38:00;14.95;;;7.95;;
80322;SDS011;69636;52.372;13.610;2024-03-22T05:40:26;17.75;;;9.18;;
80322;SDS011;69636;52.372;13.610;2024-03-22T05:42:53;13.70;;;7.13;;
80322;SDS011;69636;52.372;13.610;2024-03-22T05:45:19;13.85;;;7.15;;
80322;SDS011;69636;52.372;13.610;2024-03-22T05:47:45;15.05;;;7.95;;
80322;SDS011;69636;52.372;13.610;2024-03-22T05:50:13;14.65;;;8.73;;
80322;SDS011;69636;52.372;13.610;2024-03-22T05:52:39;16.15;;;9.07;;
80322;SDS011;69636;52.372;13.610;2024-03-22T05:55:06;14.35;;;6.93;;
80322;SDS011;69636;52.372;13.610;2024-03-22T05:57:32;14.63;;;8.45;;
80322;SDS011;69636;52.372;13.610;2024-03-22T05:59:59;16.30;;;8.02;;
80322;SDS011;69636;52.372;13.610;2024-03-22T06:02:25;15.23;;;8.80;;
80322;SDS011;69636;52.372;13.610;2024-03-22T06:04:51;14.75;;;8.35;;
80322;SDS011;69636;52.372;13.610;2024-03-22T06:07:19;15.88;;;9.80;;
80322;SDS011;69636;52.372;13.610;2024-03-22T06:09:45;14.30;;;8.55;;
80322;SDS011;69636;52.372;13.610;2024-03-22T06:12:12;15.70;;;9.38;;
80322;SDS011;69636;52.372;13.610;2024-03-22T06:14:39;14.77;;;8.30;;
80322;SDS011;69636;52.372;13.610;2024-03-22T06:17:05;14.15;;;7.88;;
80322;SDS011;69636;52.372;13.610;2024-03-22T06:19:31;16.00;;;7.65;;
80322;SDS011;69636;52.372;13.610;2024-03-22T06:21:58;15.52;;;8.07;;
80322;SDS011;69636;52.372;13.610;2024-03-22T06:24:26;13.68;;;8.55;;
80322;SDS011;69636;52.372;13.610;2024-03-22T06:26:52;16.17;;;8.73;;
80322;SDS011;69636;52.372;13.610;2024-03-22T06:29:18;16.95;;;10.43;;
80322;SDS011;69636;52.372;13.610;2024-03-22T06:31:45;13.80;;;7.97;;
80322;SDS011;69636;52.372;13.610;2024-03-22T06:34:11;16.52;;;8.95;;
80322;SDS011;69636;52.372;13.610;2024-03-22T06:36:37;16.42;;;9.68;;
80322;SDS011;69636;52.372;13.610;2024-03-22T06:39:04;14.98;;;8.68;;
80322;SDS011;69636;52.372;13.610;2024-03-22T06:41:31;15.68;;;8.45;;
80322;SDS011;69636;52.372;13.610;2024-03-22T06:43:58;14.80;;;8.52;;
80322;SDS011;69636;52.372;13.610;2024-03-22T06:46:24;18.35;;;9.98;;
80322;SDS011;69636;52.372;13.610;2024-03-22T06:48:51;16.80;;;8.35;;
80322;SDS011;69636;52.372;13.610;2024-03-22T06:51:18;16.55;;;9.27;;
80322;SDS011;69636;52.372;13.610;2024-03-22T06:53:44;19.67;;;10.80;;
80322;SDS011;69636;52.372;13.610;2024-03-22T06:56:11;14.80;;;8.65;;
80322;SDS011;69636;52.372;13.610;2024-03-22T06:58:38;14.60;;;8.07;;
80322;SDS011;69636;52.372;13.610;2024-03-22T07:01:05;15.05;;;8.25;;
80322;SDS011;69636;52.372;13.610;2024-03-22T07:03:31;17.05;;;9.98;;
80322;SDS011;69636;52.372;13.610;2024-03-22T07:05:57;19.25;;;10.00;;
80322;SDS011;69636;52.372;13.610;2024-03-22T07:08:24;17.20;;;8.95;;
80322;SDS011;69636;52.372;13.610;2024-03-22T07:10:50;20.48;;;9.23;;
80322;SDS011;69636;52.372;13.610;2024-03-22T07:13:17;15.48;;;9.07;;
80322;SDS011;69636;52.372;13.610;2024-03-22T07:15:45;17.52;;;9.63;;
80322;SDS011;69636;52.372;13.610;2024-03-22T07:18:11;19.00;;;11.38;;
80322;SDS011;69636;52.372;13.610;2024-03-22T07:20:37;17.05;;;9.10;;
80322;SDS011;69636;52.372;13.610;2024-03-22T07:23:05;18.00;;;10.75;;
80322;SDS011;69636;52.372;13.610;2024-03-22T07:25:31;17.92;;;11.30;;
80322;SDS011;69636;52.372;13.610;2024-03-22T07:27:57;18.55;;;9.75;;
80322;SDS011;69636;52.372;13.610;2024-03-22T07:30:24;17.98;;;10.45;;
80322;SDS011;69636;52.372;13.610;2024-03-22T07:32:51;19.00;;;10.20;;
80322;SDS011;69636;52.372;13.610;2024-03-22T07:35:18;21.92;;;11.85;;
80322;SDS011;69636;52.372;13.610;2024-03-22T07:37:44;18.13;;;10.85;;
80322;SDS011;69636;52.372;13.610;2024-03-22T07:40:10;17.77;;;9.85;;
80322;SDS011;69636;52.372;13.610;2024-03-22T07:42:37;17.33;;;10.00;;
80322;SDS011;69636;52.372;13.610;2024-03-22T07:45:03;18.05;;;10.65;;
80322;SDS011;69636;52.372;13.610;2024-03-22T07:47:30;20.23;;;10.98;;
80322;SDS011;69636;52.372;13.610;2024-03-22T07:49:58;20.92;;;10.57;;
80322;SDS011;69636;52.372;13.610;2024-03-22T07:52:24;17.65;;;10.23;;
80322;SDS011;69636;52.372;13.610;2024-03-22T07:54:51;20.83;;;12.23;;
80322;SDS011;69636;52.372;13.610;2024-03-22T07:57:17;18.08;;;10.13;;
80322;SDS011;69636;52.372;13.610;2024-03-22T07:59:43;17.40;;;10.98;;
80322;SDS011;69636;52.372;13.610;2024-03-22T08:02:10;18.98;;;10.43;;
80322;SDS011;69636;52.372;13.610;2024-03-22T08:04:36;20.30;;;11.25;;
80322;SDS011;69636;52.372;13.610;2024-03-22T08:07:04;20.95;;;10.45;;
80322;SDS011;69636;52.372;13.610;2024-03-22T08:09:30;18.42;;;9.77;;
80322;SDS011;69636;52.372;13.610;2024-03-22T08:11:56;20.05;;;10.80;;
80322;SDS011;69636;52.372;13.610;2024-03-22T08:14:23;19.08;;;9.80;;
80322;SDS011;69636;52.372;13.610;2024-03-22T08:16:49;22.85;;;10.32;;
80322;SDS011;69636;52.372;13.610;2024-03-22T08:19:15;18.50;;;10.25;;
80322;SDS011;69636;52.372;13.610;2024-03-22T08:21:42;18.23;;;11.32;;
80322;SDS011;69636;52.372;13.610;2024-03-22T08:24:09;15.02;;;10.25;;
80322;SDS011;69636;52.372;13.610;2024-03-22T08:26:36;20.73;;;12.27;;
80322;SDS011;69636;52.372;13.610;2024-03-22T08:29:02;17.98;;;10.48;;
80322;SDS011;69636;52.372;13.610;2024-03-22T08:31:28;15.23;;;9.65;;
80322;SDS011;69636;52.372;13.610;2024-03-22T08:33:55;17.83;;;10.88;;
80322;SDS011;69636;52.372;13.610;2024-03-22T08:36:21;18.00;;;10.88;;
80322;SDS011;69636;52.372;13.610;2024-03-22T08:38:47;18.08;;;9.88;;
80322;SDS011;69636;52.372;13.610;2024-03-22T08:41:15;17.10;;;11.02;;
80322;SDS011;69636;52.372;13.610;2024-03-22T08:43:41;19.73;;;10.20;;
80322;SDS011;69636;52.372;13.610;2024-03-22T08:46:08;17.40;;;10.00;;
80322;SDS011;69636;52.372;13.610;2024-03-22T08:48:34;16.55;;;10.60;;
80322;SDS011;69636;52.372;13.610;2024-03-22T08:51:01;18.58;;;10.38;;
80322;SDS011;69636;52.372;13.610;2024-03-22T08:53:27;20.77;;;10.60;;
80322;SDS011;69636;52.372;13.610;2024-03-22T08:55:53;16.42;;;9.25;;
80322;SDS011;69636;52.372;13.610;2024-03-22T08:58:21;17.27;;;11.05;;
80322;SDS011;69636;52.372;13.610;2024-03-22T09:00:47;17.67;;;10.38;;
80322;SDS011;69636;52.372;13.610;2024-03-22T09:03:14;16.88;;;9.82;;
80322;SDS011;69636;52.372;13.610;2024-03-22T09:05:40;16.65;;;9.20;;
80322;SDS011;69636;52.372;13.610;2024-03-22T09:08:06;17.48;;;8.55;;
80322;SDS011;69636;52.372;13.610;2024-03-22T09:10:33;15.45;;;9.50;;
80322;SDS011;69636;52.372;13.610;2024-03-22T09:12:59;16.02;;;9.77;;
80322;SDS011;69636;52.372;13.610;2024-03-22T09:15:27;18.35;;;10.27;;
80322;SDS011;69636;52.372;13.610;2024-03-22T09:17:53;15.60;;;9.13;;
80322;SDS011;69636;52.372;13.610;2024-03-22T09:20:20;16.83;;;9.27;;
80322;SDS011;69636;52.372;13.610;2024-03-22T09:22:46;18.90;;;10.98;;
80322;SDS011;69636;52.372;13.610;2024-03-22T09:25:12;17.08;;;10.02;;
80322;SDS011;69636;52.372;13.610;2024-03-22T09:27:39;18.42;;;9.65;;
80322;SDS011;69636;52.372;13.610;2024-03-22T09:30:05;16.58;;;8.45;;
80322;SDS011;69636;52.372;13.610;2024-03-22T09:32:34;15.77;;;8.57;;
80322;SDS011;69636;52.372;13.610;2024-03-22T09:35:00;17.73;;;9.73;;
80322;SDS011;69636;52.372;13.610;2024-03-22T09:37:26;18.10;;;9.88;;
80322;SDS011;69636;52.372;13.610;2024-03-22T09:39:53;15.60;;;11.32;;
80322;SDS011;69636;52.372;13.610;2024-03-22T09:42:19;15.55;;;9.63;;
80322;SDS011;69636;52.372;13.610;2024-03-22T09:44:48;16.98;;;8.95;;
80322;SDS011;69636;52.372;13.610;2024-03-22T09:47:15;13.55;;;8.07;;
80322;SDS011;69636;52.372;13.610;2024-03-22T09:49:43;15.98;;;8.93;;
80322;SDS011;69636;52.372;13.610;2024-03-22T09:52:10;14.90;;;8.98;;
80322;SDS011;69636;52.372;13.610;2024-03-22T09:54:38;16.25;;;9.32;;
80322;SDS011;69636;52.372;13.610;2024-03-22T09:57:07;16.83;;;8.98;;
80322;SDS011;69636;52.372;13.610;2024-03-22T09:59:36;17.27;;;9.20;;
80322;SDS011;69636;52.372;13.610;2024-03-22T10:02:03;16.92;;;10.02;;
80322;SDS011;69636;52.372;13.610;2024-03-22T10:04:30;16.13;;;9.35;;
80322;SDS011;69636;52.372;13.610;2024-03-22T10:06:57;15.18;;;8.65;;
80322;SDS011;69636;52.372;13.610;2024-03-22T10:09:28;16.10;;;9.43;;
80322;SDS011;69636;52.372;13.610;2024-03-22T10:11:54;16.98;;;9.65;;
80322;SDS011;69636;52.372;13.610;2024-03-22T10:14:20;14.55;;;9.02;;
80322;SDS011;69636;52.372;13.610;2024-03-22T10:16:47;15.27;;;9.27;;
80322;SDS011;69636;52.372;13.610;2024-03-22T10:19:13;13.95;;;8.77;;
80322;SDS011;69636;52.372;13.610;2024-03-22T10:21:41;14.85;;;9.00;;
80322;SDS011;69636;52.372;13.610;2024-03-22T10:24:10;15.45;;;9.80;;
80322;SDS011;69636;52.372;13.610;2024-03-22T10:26:36;17.25;;;11.77;;
80322;SDS011;69636;52.372;13.610;2024-03-22T10:29:04;14.77;;;9.02;;
80322;SDS011;69636;52.372;13.610;2024-03-22T10:31:31;14.65;;;8.73;;
80322;SDS011;69636;52.372;13.610;2024-03-22T10:34:00;18.83;;;10.15;;
80322;SDS011;69636;52.372;13.610;2024-03-22T10:36:28;15.50;;;9.07;;
80322;SDS011;69636;52.372;13.610;2024-03-22T10:38:54;12.73;;;7.85;;
80322;SDS011;69636;52.372;13.610;2024-03-22T10:41:27;15.13;;;10.30;;
80322;SDS011;69636;52.372;13.610;2024-03-22T10:43:53;16.98;;;9.15;;
80322;SDS011;69636;52.372;13.610;2024-03-22T10:46:22;15.27;;;9.30;;
80322;SDS011;69636;52.372;13.610;2024-03-22T10:48:56;13.73;;;8.10;;
80322;SDS011;69636;52.372;13.610;2024-03-22T10:51:23;13.80;;;8.20;;
80322;SDS011;69636;52.372;13.610;2024-03-22T10:53:52;13.07;;;8.25;;
80322;SDS011;69636;52.372;13.610;2024-03-22T10:56:21;13.52;;;8.38;;
80322;SDS011;69636;52.372;13.610;2024-03-22T10:58:51;14.60;;;8.30;;
80322;SDS011;69636;52.372;13.610;2024-03-22T11:01:21;13.90;;;8.85;;
80322;SDS011;69636;52.372;13.610;2024-03-22T11:03:48;14.77;;;7.95;;
80322;SDS011;69636;52.372;13.610;2024-03-22T11:06:17;13.75;;;7.90;;
80322;SDS011;69636;52.372;13.610;2024-03-22T11:08:48;13.75;;;8.05;;
80322;SDS011;69636;52.372;13.610;2024-03-22T11:11:17;13.20;;;7.85;;
80322;SDS011;69636;52.372;13.610;2024-03-22T11:16:14;13.40;;;7.60;;
80322;SDS011;69636;52.372;13.610;2024-03-22T11:18:41;14.02;;;8.57;;
80322;SDS011;69636;52.372;13.610;2024-03-22T11:21:07;16.17;;;7.97;;
80322;SDS011;69636;52.372;13.610;2024-03-22T11:23:33;13.35;;;8.18;;
80322;SDS011;69636;52.372;13.610;2024-03-22T11:26:00;13.00;;;8.10;;
80322;SDS011;69636;52.372;13.610;2024-03-22T11:28:27;13.45;;;7.97;;
80322;SDS011;69636;52.372;13.610;2024-03-22T11:30:53;13.30;;;7.82;;
80322;SDS011;69636;52.372;13.610;2024-03-22T11:33:21;13.45;;;7.97;;
80322;SDS011;69636;52.372;13.610;2024-03-22T11:35:47;15.15;;;8.57;;
80322;SDS011;69636;52.372;13.610;2024-03-22T11:38:14;15.35;;;9.05;;
80322;SDS011;69636;52.372;13.610;2024-03-22T11:40:41;16.60;;;9.07;;
80322;SDS011;69636;52.372;13.610;2024-03-22T11:43:08;16.10;;;10.05;;
80322;SDS011;69636;52.372;13.610;2024-03-22T11:45:35;15.70;;;8.90;;
80322;SDS011;69636;52.372;13.610;2024-03-22T11:48:01;16.85;;;9.85;;
80322;SDS011;69636;52.372;13.610;2024-03-22T11:50:30;15.90;;;9.20;;
80322;SDS011;69636;52.372;13.610;2024-03-22T11:52:56;16.70;;;9.63;;
80322;SDS011;69636;52.372;13.610;2024-03-22T11:55:26;17.00;;;9.02;;
80322;SDS011;69636;52.372;13.610;2024-03-22T11:57:53;16.52;;;9.15;;
80322;SDS011;69636;52.372;13.610;2024-03-22T12:00:19;15.48;;;11.15;;
80322;SDS011;69636;52.372;13.610;2024-03-22T12:02:45;16.10;;;9.20;;
80322;SDS011;69636;52.372;13.610;2024-03-22T12:05:12;15.35;;;9.43;;
80322;SDS011;69636;52.372;13.610;2024-03-22T12:07:39;15.55;;;9.43;;
80322;SDS011;69636;52.372;13.610;2024-03-22T12:10:06;19.13;;;8.77;;
80322;SDS011;69636;52.372;13.610;2024-03-22T12:12:33;17.00;;;9.27;;
80322;SDS011;69636;52.372;13.610;2024-03-22T12:14:59;16.20;;;9.07;;
80322;SDS011;69636;52.372;13.610;2024-03-22T12:17:25;17.10;;;11.73;;
80322;SDS011;69636;52.372;13.610;2024-03-22T12:19:52;16.90;;;10.27;;
80322;SDS011;69636;52.372;13.610;2024-03-22T12:22:18;14.65;;;8.90;;
80322;SDS011;69636;52.372;13.610;2024-03-22T12:24:46;16.10;;;8.35;;
80322;SDS011;69636;52.372;13.610;2024-03-22T12:27:12;16.35;;;9.88;;
80322;SDS011;69636;52.372;13.610;2024-03-22T12:29:39;17.75;;;8.90;;
80322;SDS011;69636;52.372;13.610;2024-03-22T12:32:07;18.67;;;10.75;;
80322;SDS011;69636;52.372;13.610;2024-03-22T12:34:34;20.85;;;10.27;;
80322;SDS011;69636;52.372;13.610;2024-03-22T12:37:00;22.08;;;11.10;;
80322;SDS011;69636;52.372;13.610;2024-03-22T12:39:28;19.13;;;11.20;;
80322;SDS011;69636;52.372;13.610;2024-03-22T12:41:56;19.27;;;11.77;;
80322;SDS011;69636;52.372;13.610;2024-03-22T12:44:22;23.02;;;11.50;;
80322;SDS011;69636;52.372;13.610;2024-03-22T12:46:48;20.75;;;11.52;;
80322;SDS011;69636;52.372;13.610;2024-03-22T12:49:15;19.48;;;10.60;;
80322;SDS011;69636;52.372;13.610;2024-03-22T12:51:41;22.25;;;11.77;;
80322;SDS011;69636;52.372;13.610;2024-03-22T12:54:07;22.33;;;10.82;;
80322;SDS011;69636;52.372;13.610;2024-03-22T12:56:35;23.95;;;12.88;;
80322;SDS011;69636;52.372;13.610;2024-03-22T12:59:02;23.05;;;12.15;;
80322;SDS011;69636;52.372;13.610;2024-03-22T13:01:29;24.63;;;12.60;;
80322;SDS011;69636;52.372;13.610;2024-03-22T13:03:55;24.83;;;12.85;;
80322;SDS011;69636;52.372;13.610;2024-03-22T13:06:21;26.60;;;12.88;;
80322;SDS011;69636;52.372;13.610;2024-03-22T13:08:48;25.02;;;13.88;;
80322;SDS011;69636;52.372;13.610;2024-03-22T13:11:15;23.63;;;13.00;;
80322;SDS011;69636;52.372;13.610;2024-03-22T13:13:41;26.45;;;13.75;;
80322;SDS011;69636;52.372;13.610;2024-03-22T13:16:09;30.30;;;13.85;;
80322;SDS011;69636;52.372;13.610;2024-03-22T13:21:01;31.00;;;14.43;;
80322;SDS011;69636;52.372;13.610;2024-03-22T13:23:28;32.65;;;14.35;;
80322;SDS011;69636;52.372;13.610;2024-03-22T13:25:55;31.42;;;15.25;;
80322;SDS011;69636;52.372;13.610;2024-03-22T13:28:21;30.70;;;14.05;;
80322;SDS011;69636;52.372;13.610;2024-03-22T13:30:47;29.40;;;13.27;;
80322;SDS011;69636;52.372;13.610;2024-03-22T13:33:15;29.05;;;14.40;;
80322;SDS011;69636;52.372;13.610;2024-03-22T13:35:44;25.13;;;13.43;;
80322;SDS011;69636;52.372;13.610;2024-03-22T13:38:12;28.38;;;12.65;;
80322;SDS011;69636;52.372;13.610;2024-03-22T13:40:38;28.55;;;13.48;;
80322;SDS011;69636;52.372;13.610;2024-03-22T13:43:04;25.08;;;14.82;;
80322;SDS011;69636;52.372;13.610;2024-03-22T13:45:31;22.88;;;11.63;;
80322;SDS011;69636;52.372;13.610;2024-03-22T13:47:57;19.52;;;9.27;;
80322;SDS011;69636;52.372;13.610;2024-03-22T13:50:27;18.58;;;9.73;;
80322;SDS011;69636;52.372;13.610;2024-03-22T13:52:54;17.98;;;10.10;;
80322;SDS011;69636;52.372;13.610;2024-03-22T13:55:20;19.63;;;10.25;;
80322;SDS011;69636;52.372;13.610;2024-03-22T13:57:46;21.00;;;10.13;;
80322;SDS011;69636;52.372;13.610;2024-03-22T14:00:13;18.80;;;10.50;;
80322;SDS011;69636;52.372;13.610;2024-03-22T14:02:39;21.58;;;12.07;;
80322;SDS011;69636;52.372;13.610;2024-03-22T14:05:06;17.88;;;10.10;;
80322;SDS011;69636;52.372;13.610;2024-03-22T14:07:34;20.63;;;10.32;;
80322;SDS011;69636;52.372;13.610;2024-03-22T14:10:00;18.60;;;9.85;;
80322;SDS011;69636;52.372;13.610;2024-03-22T14:12:27;21.83;;;10.18;;
80322;SDS011;69636;52.372;13.610;2024-03-22T14:14:53;25.05;;;11.27;;
80322;SDS011;69636;52.372;13.610;2024-03-22T14:17:19;22.13;;;10.45;;